CCCOQ SCCI-SCCI
Flight info
| Callsign | CCCOQ |
|---|---|
| Flight time | 0h 48m |
| Altitude | 3000 |
| Route | NAS069010 DCT |
| Aircraft | BE20/L-SDEGH/C |
Departure
| Time | 2026-04-17 00:03 |
|---|---|
| Airport | President Carlos Ibáñez International Airport (SCCI) |
Arrival
| Time | 2026-04-17 00:51 |
|---|---|
| Airport | President Carlos Ibáñez International Airport (SCCI) |
| Time | Latitude | Longitude | Altitude | Speed | Heading |
|---|---|---|---|---|---|
| 2026-04-16 23:59 | -53.00209 | -70.84781 | 124 ft | 0 kts | 317° |
| 2026-04-17 00:00 | -53.00194 | -70.84806 | 124 ft | 1 kts | 313° |
| 2026-04-17 00:00 | -53.00157 | -70.84882 | 123 ft | 14 kts | 295° |
| 2026-04-17 00:00 | -53.00153 | -70.84899 | 124 ft | 0 kts | 286° |
| 2026-04-17 00:01 | -53.00152 | -70.84905 | 124 ft | 1 kts | 287° |
| 2026-04-17 00:01 | -53.00145 | -70.84928 | 124 ft | 1 kts | 305° |
| 2026-04-17 00:01 | -53.00129 | -70.84948 | 124 ft | 7 kts | 335° |
| 2026-04-17 00:01 | -53.00085 | -70.84982 | 124 ft | 1 kts | 314° |
| 2026-04-17 00:02 | -53.00076 | -70.85013 | 122 ft | 6 kts | 281° |
| 2026-04-17 00:02 | -53.00082 | -70.85200 | 124 ft | 39 kts | 267° |
| 2026-04-17 00:02 | -53.00109 | -70.86030 | 197 ft | 101 kts | 268° |
| 2026-04-17 00:02 | -53.00384 | -70.87288 | 518 ft | 128 kts | 214° |
| 2026-04-17 00:03 | -53.01066 | -70.87831 | 1446 ft | 106 kts | 219° |
| 2026-04-17 00:03 | -53.01538 | -70.88894 | 1760 ft | 123 kts | 265° |
| 2026-04-17 00:03 | -53.01623 | -70.90339 | 2153 ft | 128 kts | 268° |
| 2026-04-17 00:03 | -53.01590 | -70.91812 | 2579 ft | 128 kts | 291° |
| 2026-04-17 00:04 | -53.01266 | -70.93233 | 2913 ft | 137 kts | 293° |
| 2026-04-17 00:04 | -53.00890 | -70.94823 | 2939 ft | 153 kts | 294° |
| 2026-04-17 00:04 | -53.00413 | -70.96393 | 2944 ft | 156 kts | 314° |
| 2026-04-17 00:04 | -52.99430 | -70.97047 | 2953 ft | 155 kts | 1° |
| 2026-04-17 00:05 | -52.98517 | -70.96205 | 2953 ft | 156 kts | 51° |
| 2026-04-17 00:05 | -52.98164 | -70.94498 | 2950 ft | 158 kts | 78° |
| 2026-04-17 00:05 | -52.98229 | -70.92692 | 2957 ft | 159 kts | 109° |
| 2026-04-17 00:05 | -52.98709 | -70.91040 | 2954 ft | 159 kts | 116° |
| 2026-04-17 00:06 | -52.99196 | -70.89414 | 2957 ft | 158 kts | 115° |
| 2026-04-17 00:06 | -52.99690 | -70.87780 | 2954 ft | 158 kts | 116° |
| 2026-04-17 00:06 | -53.00192 | -70.86161 | 2956 ft | 158 kts | 116° |
| 2026-04-17 00:06 | -53.00704 | -70.84550 | 2953 ft | 157 kts | 117° |
| 2026-04-17 00:07 | -53.01223 | -70.82959 | 2953 ft | 157 kts | 118° |
| 2026-04-17 00:07 | -53.01826 | -70.81461 | 2953 ft | 156 kts | 128° |
| 2026-04-17 00:07 | -53.02145 | -70.79793 | 2938 ft | 152 kts | 82° |
| 2026-04-17 00:07 | -53.01892 | -70.78142 | 2940 ft | 147 kts | 61° |
| 2026-04-17 00:08 | -53.01397 | -70.76661 | 2941 ft | 145 kts | 49° |
| 2026-04-17 00:08 | -53.00768 | -70.75348 | 2947 ft | 145 kts | 47° |
| 2026-04-17 00:08 | -53.00095 | -70.74113 | 2945 ft | 144 kts | 41° |
| 2026-04-17 00:08 | -52.99515 | -70.72762 | 2946 ft | 144 kts | 59° |
| 2026-04-17 00:09 | -52.99260 | -70.71145 | 2947 ft | 146 kts | 76° |
| 2026-04-17 00:09 | -52.99080 | -70.69491 | 2945 ft | 145 kts | 78° |
| 2026-04-17 00:09 | -52.98930 | -70.67858 | 2944 ft | 145 kts | 78° |
| 2026-04-17 00:09 | -52.98785 | -70.66200 | 2942 ft | 145 kts | 79° |
| 2026-04-17 00:10 | -52.98643 | -70.64537 | 2943 ft | 145 kts | 79° |
| 2026-04-17 00:10 | -52.98509 | -70.62924 | 2938 ft | 137 kts | 79° |
| 2026-04-17 00:10 | -52.98376 | -70.61384 | 2939 ft | 135 kts | 78° |
| 2026-04-17 00:10 | -52.98243 | -70.59836 | 2938 ft | 135 kts | 78° |
| 2026-04-17 00:11 | -52.98114 | -70.58304 | 2939 ft | 133 kts | 78° |
| 2026-04-17 00:11 | -52.97789 | -70.56957 | 2937 ft | 125 kts | 40° |
| 2026-04-17 00:11 | -52.97129 | -70.56021 | 2940 ft | 125 kts | 37° |
| 2026-04-17 00:11 | -52.96473 | -70.55080 | 2943 ft | 124 kts | 37° |
| 2026-04-17 00:12 | -52.95814 | -70.54143 | 2946 ft | 125 kts | 37° |
| 2026-04-17 00:12 | -52.95151 | -70.53202 | 2949 ft | 125 kts | 37° |
| 2026-04-17 00:12 | -52.94768 | -70.51933 | 2951 ft | 131 kts | 82° |
| 2026-04-17 00:12 | -52.94693 | -70.50422 | 2953 ft | 132 kts | 83° |
| 2026-04-17 00:13 | -52.94652 | -70.48905 | 2955 ft | 133 kts | 85° |
| 2026-04-17 00:13 | -52.94653 | -70.47375 | 2958 ft | 134 kts | 101° |
| 2026-04-17 00:13 | -52.95238 | -70.46254 | 2961 ft | 133 kts | 165° |
| 2026-04-17 00:13 | -52.96078 | -70.46513 | 2959 ft | 123 kts | 225° |
| 2026-04-17 00:14 | -52.96730 | -70.47438 | 2962 ft | 122 kts | 232° |
| 2026-04-17 00:14 | -52.97174 | -70.48609 | 2959 ft | 118 kts | 259° |
| 2026-04-17 00:14 | -52.97337 | -70.49938 | 2960 ft | 118 kts | 262° |
| 2026-04-17 00:14 | -52.97483 | -70.51274 | 2961 ft | 119 kts | 265° |
| 2026-04-17 00:15 | -52.97613 | -70.52621 | 2959 ft | 118 kts | 265° |
| 2026-04-17 00:15 | -52.97734 | -70.53972 | 2957 ft | 118 kts | 266° |
| 2026-04-17 00:15 | -52.97852 | -70.55331 | 2957 ft | 119 kts | 266° |
| 2026-04-17 00:15 | -52.97966 | -70.56676 | 2959 ft | 119 kts | 266° |
| 2026-04-17 00:16 | -52.98082 | -70.58032 | 2958 ft | 119 kts | 266° |
| 2026-04-17 00:16 | -52.98197 | -70.59393 | 2956 ft | 119 kts | 266° |
| 2026-04-17 00:16 | -52.98313 | -70.60754 | 2957 ft | 118 kts | 266° |
| 2026-04-17 00:16 | -52.98428 | -70.62111 | 2957 ft | 118 kts | 266° |
| 2026-04-17 00:17 | -52.98544 | -70.63473 | 2954 ft | 119 kts | 266° |
| 2026-04-17 00:17 | -52.98659 | -70.64837 | 2952 ft | 119 kts | 266° |
| 2026-04-17 00:17 | -52.98773 | -70.66177 | 2953 ft | 118 kts | 266° |
| 2026-04-17 00:17 | -52.98888 | -70.67531 | 2954 ft | 118 kts | 266° |
| 2026-04-17 00:18 | -52.99003 | -70.68878 | 2951 ft | 117 kts | 266° |
| 2026-04-17 00:18 | -52.99115 | -70.70207 | 2948 ft | 117 kts | 266° |
| 2026-04-17 00:18 | -52.99229 | -70.71546 | 2949 ft | 117 kts | 266° |
| 2026-04-17 00:18 | -52.99342 | -70.72879 | 2950 ft | 117 kts | 266° |
| 2026-04-17 00:19 | -52.99454 | -70.74209 | 2948 ft | 116 kts | 266° |
| 2026-04-17 00:19 | -52.99567 | -70.75540 | 2947 ft | 116 kts | 266° |
| 2026-04-17 00:19 | -52.99680 | -70.76872 | 2950 ft | 116 kts | 266° |
| 2026-04-17 00:19 | -52.99793 | -70.78202 | 2947 ft | 116 kts | 266° |
| 2026-04-17 00:20 | -52.99905 | -70.79527 | 2948 ft | 116 kts | 267° |
| 2026-04-17 00:20 | -53.00016 | -70.80840 | 2949 ft | 116 kts | 267° |
| 2026-04-17 00:20 | -53.00126 | -70.82173 | 2949 ft | 116 kts | 266° |
| 2026-04-17 00:20 | -53.00237 | -70.83504 | 2951 ft | 116 kts | 266° |
| 2026-04-17 00:21 | -53.00347 | -70.84827 | 2948 ft | 115 kts | 266° |
| 2026-04-17 00:21 | -53.00457 | -70.86142 | 2950 ft | 115 kts | 268° |
| 2026-04-17 00:21 | -53.00565 | -70.87444 | 2950 ft | 115 kts | 267° |
| 2026-04-17 00:21 | -53.00675 | -70.88763 | 2948 ft | 115 kts | 267° |
| 2026-04-17 00:22 | -53.01952 | -70.89906 | 2931 ft | 137 kts | 153° |
| 2026-04-17 00:22 | -53.02518 | -70.88675 | 2938 ft | 135 kts | 99° |
| 2026-04-17 00:22 | -53.02552 | -70.87137 | 2947 ft | 133 kts | 87° |
| 2026-04-17 00:23 | -53.02566 | -70.85594 | 2952 ft | 133 kts | 87° |
| 2026-04-17 00:23 | -53.02570 | -70.84071 | 2955 ft | 133 kts | 87° |
| 2026-04-17 00:23 | -53.02569 | -70.82524 | 2958 ft | 134 kts | 86° |
| 2026-04-17 00:23 | -53.02771 | -70.81024 | 2958 ft | 137 kts | 125° |
| 2026-04-17 00:24 | -53.03326 | -70.79731 | 2956 ft | 138 kts | 124° |
| 2026-04-17 00:24 | -53.03899 | -70.78455 | 2957 ft | 137 kts | 128° |
| 2026-04-17 00:24 | -53.04494 | -70.77192 | 2882 ft | 142 kts | 129° |
| 2026-04-17 00:24 | -53.05110 | -70.75922 | 2870 ft | 139 kts | 129° |
| 2026-04-17 00:25 | -53.05703 | -70.74693 | 2941 ft | 137 kts | 129° |
| 2026-04-17 00:25 | -53.06310 | -70.73447 | 2941 ft | 140 kts | 129° |
| 2026-04-17 00:25 | -53.06929 | -70.72176 | 2943 ft | 142 kts | 129° |
| 2026-04-17 00:25 | -53.07552 | -70.70901 | 2951 ft | 142 kts | 129° |
| 2026-04-17 00:26 | -53.08162 | -70.69644 | 2982 ft | 142 kts | 129° |
| 2026-04-17 00:26 | -53.08787 | -70.68362 | 2987 ft | 143 kts | 129° |
| 2026-04-17 00:26 | -53.09415 | -70.67069 | 2990 ft | 143 kts | 129° |
| 2026-04-17 00:26 | -53.10045 | -70.65776 | 2989 ft | 143 kts | 129° |
| 2026-04-17 00:27 | -53.10672 | -70.64484 | 2993 ft | 143 kts | 129° |
| 2026-04-17 00:27 | -53.11290 | -70.63212 | 2991 ft | 143 kts | 129° |
| 2026-04-17 00:27 | -53.11913 | -70.61930 | 2993 ft | 143 kts | 129° |
| 2026-04-17 00:27 | -53.12539 | -70.60638 | 2991 ft | 144 kts | 129° |
| 2026-04-17 00:28 | -53.13168 | -70.59343 | 2994 ft | 144 kts | 129° |
| 2026-04-17 00:28 | -53.13799 | -70.58042 | 2994 ft | 144 kts | 129° |
| 2026-04-17 00:28 | -53.14427 | -70.56750 | 2996 ft | 142 kts | 129° |
| 2026-04-17 00:28 | -53.15044 | -70.55478 | 2988 ft | 140 kts | 129° |
| 2026-04-17 00:29 | -53.15647 | -70.54232 | 2985 ft | 139 kts | 129° |
| 2026-04-17 00:29 | -53.16255 | -70.52976 | 2982 ft | 138 kts | 129° |
| 2026-04-17 00:29 | -53.16857 | -70.51733 | 2982 ft | 137 kts | 129° |
| 2026-04-17 00:29 | -53.17458 | -70.50492 | 2983 ft | 138 kts | 129° |
| 2026-04-17 00:30 | -53.18062 | -70.49246 | 2987 ft | 138 kts | 129° |
| 2026-04-17 00:30 | -53.18659 | -70.48012 | 2986 ft | 138 kts | 129° |
| 2026-04-17 00:30 | -53.19262 | -70.46767 | 2990 ft | 139 kts | 129° |
| 2026-04-17 00:30 | -53.19874 | -70.45502 | 2992 ft | 141 kts | 129° |
| 2026-04-17 00:31 | -53.20490 | -70.44230 | 2999 ft | 143 kts | 129° |
| 2026-04-17 00:31 | -53.21116 | -70.42935 | 3003 ft | 144 kts | 129° |
| 2026-04-17 00:31 | -53.21745 | -70.41636 | 3006 ft | 144 kts | 129° |
| 2026-04-17 00:31 | -53.22376 | -70.40331 | 3009 ft | 144 kts | 129° |
| 2026-04-17 00:32 | -53.22997 | -70.39045 | 3002 ft | 140 kts | 128° |
| 2026-04-17 00:32 | -53.23282 | -70.37573 | 2988 ft | 133 kts | 75° |
| 2026-04-17 00:32 | -53.22748 | -70.36487 | 2989 ft | 120 kts | 13° |
| 2026-04-17 00:32 | -53.22005 | -70.36733 | 2997 ft | 112 kts | 327° |
| 2026-04-17 00:33 | -53.21337 | -70.37412 | 3001 ft | 112 kts | 329° |
| 2026-04-17 00:33 | -53.20660 | -70.38081 | 3008 ft | 114 kts | 328° |
| 2026-04-17 00:33 | -53.19979 | -70.38756 | 3008 ft | 114 kts | 328° |
| 2026-04-17 00:33 | -53.19297 | -70.39430 | 3003 ft | 114 kts | 328° |
| 2026-04-17 00:34 | -53.18613 | -70.40107 | 3004 ft | 114 kts | 328° |
| 2026-04-17 00:34 | -53.17931 | -70.40778 | 3008 ft | 113 kts | 328° |
| 2026-04-17 00:34 | -53.17256 | -70.41436 | 3004 ft | 114 kts | 328° |
| 2026-04-17 00:34 | -53.16575 | -70.42128 | 3000 ft | 114 kts | 319° |
| 2026-04-17 00:35 | -53.16263 | -70.43309 | 3000 ft | 115 kts | 283° |
| 2026-04-17 00:35 | -53.16100 | -70.44617 | 3004 ft | 115 kts | 289° |
| 2026-04-17 00:35 | -53.15843 | -70.45875 | 3002 ft | 115 kts | 291° |
| 2026-04-17 00:35 | -53.15581 | -70.47138 | 3004 ft | 115 kts | 291° |
| 2026-04-17 00:36 | -53.15320 | -70.48401 | 3004 ft | 115 kts | 291° |
| 2026-04-17 00:36 | -53.15064 | -70.49648 | 3004 ft | 115 kts | 291° |
| 2026-04-17 00:36 | -53.14805 | -70.50915 | 3004 ft | 116 kts | 291° |
| 2026-04-17 00:36 | -53.14546 | -70.52188 | 3001 ft | 116 kts | 291° |
| 2026-04-17 00:37 | -53.14289 | -70.53456 | 2999 ft | 115 kts | 291° |
| 2026-04-17 00:37 | -53.13947 | -70.54646 | 2996 ft | 114 kts | 304° |
| 2026-04-17 00:37 | -53.13527 | -70.55768 | 2999 ft | 114 kts | 303° |
| 2026-04-17 00:37 | -53.13105 | -70.56895 | 3000 ft | 114 kts | 303° |
| 2026-04-17 00:38 | -53.12827 | -70.57637 | 2997 ft | 114 kts | 303° |
| 2026-04-17 00:38 | -53.12264 | -70.59131 | 2995 ft | 113 kts | 303° |
| 2026-04-17 00:38 | -53.11845 | -70.60239 | 2997 ft | 113 kts | 307° |
| 2026-04-17 00:38 | -53.11209 | -70.60944 | 3001 ft | 113 kts | 334° |
| 2026-04-17 00:39 | -53.10493 | -70.61502 | 2999 ft | 114 kts | 336° |
| 2026-04-17 00:39 | -53.09719 | -70.61806 | 2998 ft | 116 kts | 351° |
| 2026-04-17 00:39 | -53.08906 | -70.61847 | 3001 ft | 117 kts | 2° |
| 2026-04-17 00:39 | -53.08143 | -70.61306 | 3001 ft | 122 kts | 25° |
| 2026-04-17 00:40 | -53.07425 | -70.60538 | 3001 ft | 123 kts | 31° |
| 2026-04-17 00:40 | -53.06727 | -70.59711 | 2998 ft | 123 kts | 30° |
| 2026-04-17 00:40 | -53.06029 | -70.58889 | 3000 ft | 123 kts | 31° |
| 2026-04-17 00:40 | -53.05335 | -70.58084 | 2997 ft | 123 kts | 29° |
| 2026-04-17 00:41 | -53.04599 | -70.57358 | 2997 ft | 122 kts | 21° |
| 2026-04-17 00:41 | -53.03803 | -70.56911 | 3000 ft | 120 kts | 11° |
| 2026-04-17 00:41 | -53.02985 | -70.56576 | 2999 ft | 121 kts | 9° |
| 2026-04-17 00:41 | -53.02161 | -70.56317 | 3001 ft | 121 kts | 5° |
| 2026-04-17 00:42 | -53.01329 | -70.56168 | 2998 ft | 120 kts | 360° |
| 2026-04-17 00:42 | -53.00511 | -70.56294 | 2990 ft | 117 kts | 331° |
| 2026-04-17 00:42 | -52.99996 | -70.57275 | 2987 ft | 115 kts | 307° |
| 2026-04-17 00:42 | -52.99507 | -70.58329 | 2993 ft | 115 kts | 307° |
| 2026-04-17 00:43 | -52.99024 | -70.59385 | 2994 ft | 115 kts | 307° |
| 2026-04-17 00:43 | -52.98643 | -70.60535 | 2990 ft | 114 kts | 292° |
| 2026-04-17 00:43 | -52.98512 | -70.61830 | 2984 ft | 116 kts | 268° |
| 2026-04-17 00:43 | -52.98574 | -70.63169 | 2985 ft | 116 kts | 269° |
| 2026-04-17 00:44 | -52.98629 | -70.64054 | 2986 ft | 116 kts | 268° |
| 2026-04-17 00:44 | -52.98700 | -70.65384 | 2982 ft | 115 kts | 274° |
| 2026-04-17 00:44 | -52.99261 | -70.66797 | 2938 ft | 130 kts | 202° |
| 2026-04-17 00:44 | -53.00195 | -70.66873 | 2840 ft | 135 kts | 200° |
| 2026-04-17 00:45 | -53.00697 | -70.67413 | 2770 ft | 129 kts | 240° |
| 2026-04-17 00:45 | -53.00777 | -70.68779 | 2666 ft | 123 kts | 300° |
| 2026-04-17 00:45 | -53.00076 | -70.69486 | 2548 ft | 127 kts | 355° |
| 2026-04-17 00:45 | -52.98899 | -70.69615 | 2363 ft | 131 kts | 12° |
| 2026-04-17 00:46 | -52.98395 | -70.69046 | 2278 ft | 138 kts | 47° |
| 2026-04-17 00:46 | -52.98069 | -70.67545 | 2202 ft | 141 kts | 83° |
| 2026-04-17 00:46 | -52.98220 | -70.65978 | 2183 ft | 141 kts | 122° |
| 2026-04-17 00:46 | -52.99022 | -70.65210 | 2173 ft | 137 kts | 182° |
| 2026-04-17 00:47 | -52.99793 | -70.65856 | 2157 ft | 122 kts | 245° |
| 2026-04-17 00:47 | -52.99920 | -70.67185 | 2073 ft | 119 kts | 279° |
| 2026-04-17 00:47 | -52.99899 | -70.68593 | 1908 ft | 125 kts | 274° |
| 2026-04-17 00:47 | -52.99898 | -70.70047 | 1737 ft | 127 kts | 274° |
| 2026-04-17 00:48 | -52.99902 | -70.71523 | 1556 ft | 126 kts | 274° |
| 2026-04-17 00:48 | -52.99925 | -70.72861 | 1388 ft | 110 kts | 274° |
| 2026-04-17 00:48 | -52.99938 | -70.74100 | 1254 ft | 104 kts | 275° |
| 2026-04-17 00:48 | -52.99952 | -70.75289 | 1104 ft | 102 kts | 275° |
| 2026-04-17 00:49 | -52.99970 | -70.76457 | 958 ft | 101 kts | 274° |
| 2026-04-17 00:49 | -52.99983 | -70.77643 | 819 ft | 103 kts | 274° |
| 2026-04-17 00:49 | -52.99999 | -70.78807 | 690 ft | 96 kts | 275° |
| 2026-04-17 00:49 | -53.00015 | -70.79800 | 575 ft | 86 kts | 273° |
| 2026-04-17 00:50 | -53.00030 | -70.80808 | 459 ft | 87 kts | 275° |
| 2026-04-17 00:50 | -53.00043 | -70.81801 | 344 ft | 84 kts | 276° |
| 2026-04-17 00:50 | -53.00054 | -70.82776 | 232 ft | 85 kts | 274° |
| 2026-04-17 00:50 | -53.00068 | -70.83742 | 131 ft | 79 kts | 275° |
| 2026-04-17 00:51 | -53.00083 | -70.84711 | 157 ft | 86 kts | 275° |
| 2026-04-17 00:51 | -53.00094 | -70.85552 | 126 ft | 61 kts | 272° |
| 2026-04-17 00:51 | -53.00080 | -70.86083 | 135 ft | 27 kts | 262° |
| 2026-04-17 00:51 | -53.00083 | -70.86143 | 136 ft | 0 kts | 261° |